Portada
METAR-TAF:

METAR-TAF

Aeroports :

Le Touquet, França

latitud: 50-30-53N, longitud: 001-37-39E, altitud: 6 m

Observació

L'informe es va fer fa 21 minuts, a les 10:00 UTC
Vent 3 kt del Nord, variant entre Nord-Oest i Est/Nord-Est
Temperatura 23°C
Humitat 53%
Pressió 1015 hPa
Visibilitat 10 km o més
sense núvols per sota de 1500 mi sense presència de cumulonimbus.

METAR: LFAT 171000Z AUTO 36003KT 320V060 CAVOK 23/13 Q1015 NOSIG

Hora: 12:21 (10:21 UTC)

Pronòstic

L'informe es va fer fa 2 hores i 21 minuts, a les 08:00 UTC
Pronòstic vàlid del 17 a les 09 UTC al 17 a les 18 UTC
Vent 5 kt del Sud
Visibilitat 10 km o més
sense núvols per sota de 1500 mi sense presència de cumulonimbus.
Evolucionant progressivament
l' 17 a les 10 UTC al 17 a les 13 UTC
Vent 10 kt del Oest/Nord-Oest

TAF: LFAT 170800Z 1709/1718 18005KT CAVOK BECMG 1710/1713 30010KT

Observacions i pronòstics meteorològics de més de 4000 aeroports (METAR i TAF).

Les estacions disponibles són els punts grocs i vermells al mapa.

Posi el ratolí al punt desitjat per veure el nom de l'estació.

Feu clic per veure les observacions i els pronòstics meteorològics.

Per canviar el mapa: feu clic els botons verds amb una creu de color negre per apropar; al botó verd amb un guió per allunyar la imatge; o en les fletxes verdes per a mapes adjacents.


METAR-TAF: